createdAt,value
2022-12-11T00:02:23.126Z,43.40
2022-12-11T00:04:51.225Z,46.60
2022-12-11T00:07:19.215Z,43.40
2022-12-11T00:09:47.073Z,41.20
2022-12-11T00:12:15.102Z,42.60
2022-12-11T00:14:43.222Z,43.90
2022-12-11T00:17:11.228Z,42.80
2022-12-11T00:19:39.146Z,37.90
2022-12-11T00:22:08.158Z,38.40
2022-12-11T00:24:36.173Z,41.20
2022-12-11T00:27:04.119Z,37.90
2022-12-11T00:29:32.011Z,36.20
2022-12-11T00:31:59.897Z,41.50
2022-12-11T00:34:27.791Z,40.90
2022-12-11T00:36:59.282Z,40.60
2022-12-11T00:39:27.264Z,36.60
2022-12-11T00:41:55.243Z,42.30
2022-12-11T00:44:23.240Z,38.40
2022-12-11T00:46:51.093Z,40.90
2022-12-11T00:49:18.903Z,38.10
2022-12-11T00:51:46.706Z,42.40
2022-12-11T00:54:14.609Z,35.10
2022-12-11T00:58:31.057Z,37.70
2022-12-11T01:01:07.963Z,39.50
2022-12-11T01:03:36.582Z,38.30
2022-12-11T01:06:05.905Z,37.70
2022-12-11T01:08:38.546Z,42.80
2022-12-11T01:11:11.066Z,40.90
2022-12-11T01:13:40.586Z,35.10
2022-12-11T01:16:15.098Z,39.70
2022-12-11T01:18:44.381Z,36.60
2022-12-11T01:21:13.625Z,39.70
2022-12-11T01:23:41.680Z,36.90
2022-12-11T01:26:14.872Z,37.00
2022-12-11T01:28:44.575Z,39.90
2022-12-11T01:31:17.081Z,42.30
2022-12-11T01:33:45.601Z,35.40
2022-12-11T01:36:20.640Z,35.80
2022-12-11T01:38:49.834Z,37.90
2022-12-11T01:41:19.340Z,40.50
2022-12-11T01:44:28.669Z,44.50
2022-12-11T01:46:56.741Z,51.10
2022-12-11T01:49:27.119Z,47.70
2022-12-11T01:52:04.210Z,47.90
2022-12-11T01:54:32.747Z,43.20
2022-12-11T01:57:05.307Z,45.20
2022-12-11T01:59:37.187Z,42.50
2022-12-11T02:02:15.653Z,44.10
2022-12-11T02:04:44.883Z,37.30
2022-12-11T02:07:12.979Z,42.20
2022-12-11T02:09:44.468Z,48.70
2022-12-11T02:12:28.328Z,39.00
2022-12-11T02:15:16.404Z,38.60
2022-12-11T02:18:14.722Z,71.90
2022-12-11T02:21:11.261Z,127.20
2022-12-11T02:23:51.773Z,129.50
2022-12-11T02:26:52.217Z,81.40
2022-12-11T02:29:27.688Z,50.60
2022-12-11T02:32:03.626Z,63.00
2022-12-11T02:34:36.266Z,58.50
2022-12-11T02:37:08.286Z,49.40
2022-12-11T02:39:39.991Z,55.40
2022-12-11T02:42:10.131Z,47.90
2022-12-11T02:44:38.304Z,42.20
2022-12-11T02:47:11.168Z,38.30
2022-12-11T02:52:07.633Z,39.20
2022-12-11T02:54:38.360Z,36.10
2022-12-11T02:57:10.474Z,32.30
2022-12-11T02:59:44.541Z,33.20
2022-12-11T03:02:14.302Z,33.20
2022-12-11T03:04:44.581Z,34.70
2022-12-11T03:07:19.323Z,33.70
2022-12-11T03:09:48.587Z,33.20
2022-12-11T03:12:33.582Z,34.80
2022-12-11T03:15:06.541Z,41.70
2022-12-11T03:18:05.779Z,32.50
2022-12-11T03:20:50.402Z,35.50
2022-12-11T03:23:33.762Z,37.00
2022-12-11T03:26:06.032Z,38.20
2022-12-11T03:29:03.347Z,35.30
2022-12-11T03:31:57.679Z,34.00
2022-12-11T03:34:41.935Z,34.50
2022-12-11T03:37:11.492Z,33.70
2022-12-11T03:39:44.627Z,35.50
2022-12-11T03:42:14.740Z,32.00
2022-12-11T03:44:46.488Z,33.40
2022-12-11T03:47:19.028Z,32.70
2022-12-11T03:49:48.437Z,39.30
2022-12-11T03:52:17.225Z,34.20
2022-12-11T03:54:48.053Z,30.50
2022-12-11T03:57:19.762Z,32.00
2022-12-11T03:59:48.962Z,32.30
2022-12-11T04:02:17.060Z,31.20
2022-12-11T04:04:45.291Z,30.90
2022-12-11T04:07:13.331Z,32.20
2022-12-11T04:09:41.721Z,30.50
2022-12-11T04:12:09.717Z,31.70
2022-12-11T04:14:56.295Z,35.00
2022-12-11T04:17:43.020Z,28.00
2022-12-11T04:20:30.724Z,28.10
2022-12-11T04:23:18.896Z,31.40
2022-12-11T04:25:46.932Z,31.60
2022-12-11T04:28:14.944Z,29.70
2022-12-11T04:30:49.717Z,33.40
2022-12-11T04:33:17.684Z,28.60
2022-12-11T04:35:45.739Z,31.80
2022-12-11T04:38:13.685Z,28.30
2022-12-11T04:40:41.622Z,33.70
2022-12-11T04:43:09.573Z,29.20
2022-12-11T04:45:37.486Z,26.30
2022-12-11T04:48:05.750Z,29.10
2022-12-11T04:50:33.670Z,31.50
2022-12-11T04:53:01.537Z,31.20
2022-12-11T04:55:29.321Z,30.00
2022-12-11T04:57:57.263Z,28.80
2022-12-11T05:00:25.267Z,33.60
2022-12-11T05:02:53.165Z,29.90
2022-12-11T05:05:21.604Z,25.70
2022-12-11T05:07:49.475Z,31.40
2022-12-11T05:10:17.436Z,26.70
2022-12-11T05:12:45.370Z,30.20
2022-12-11T05:15:16.086Z,28.50
2022-12-11T05:17:44.079Z,24.80
2022-12-11T05:20:12.261Z,30.80
2022-12-11T05:22:40.231Z,34.00
2022-12-11T05:25:08.673Z,29.00
2022-12-11T05:27:37.510Z,27.50
2022-12-11T05:30:06.451Z,27.00
2022-12-11T05:32:34.579Z,27.60
2022-12-11T05:35:04.020Z,31.30
2022-12-11T05:37:34.704Z,29.50
2022-12-11T05:40:02.787Z,26.00
2022-12-11T05:42:30.727Z,28.10
2022-12-11T05:44:58.846Z,33.00
2022-12-11T05:47:26.918Z,31.40
2022-12-11T05:49:54.917Z,26.40
2022-12-11T05:52:22.988Z,26.20
2022-12-11T05:54:50.909Z,25.10
2022-12-11T05:57:18.860Z,23.30
2022-12-11T05:59:49.871Z,27.70
2022-12-11T06:02:18.789Z,26.40
2022-12-11T06:04:46.774Z,30.70
2022-12-11T06:07:14.786Z,26.70
2022-12-11T06:09:42.769Z,22.70
2022-12-11T06:12:10.704Z,23.00
2022-12-11T06:14:41.140Z,23.00
2022-12-11T06:17:09.182Z,25.30
2022-12-11T06:19:37.347Z,25.80
2022-12-11T06:22:05.397Z,21.40
2022-12-11T06:24:33.556Z,18.90
2022-12-11T06:27:01.501Z,19.50
2022-12-11T06:29:29.513Z,23.50
2022-12-11T06:31:57.530Z,20.40
2022-12-11T06:34:25.533Z,21.40
2022-12-11T06:43:05.698Z,20.20
2022-12-11T06:45:33.780Z,22.60
2022-12-11T06:48:01.850Z,22.20
2022-12-11T06:50:29.748Z,19.20
2022-12-11T06:52:57.906Z,19.30
2022-12-11T06:55:26.177Z,19.50
2022-12-11T06:57:54.084Z,22.20
2022-12-11T07:00:21.996Z,23.40
2022-12-11T07:02:51.537Z,20.40
2022-12-11T07:05:19.713Z,22.50
2022-12-11T07:07:47.741Z,22.40
2022-12-11T07:10:15.876Z,20.20
2022-12-11T07:12:43.788Z,19.40
2022-12-11T07:15:12.016Z,24.50
2022-12-11T07:17:40.445Z,22.60
2022-12-11T07:20:09.690Z,20.60
2022-12-11T07:22:43.076Z,22.90
2022-12-11T07:25:14.920Z,23.30
2022-12-11T07:27:42.974Z,21.10
2022-12-11T07:30:12.038Z,20.80
2022-12-11T07:32:40.005Z,24.40
2022-12-11T07:35:11.788Z,26.60
2022-12-11T07:37:41.564Z,38.60
2022-12-11T07:40:10.107Z,28.90
2022-12-11T07:42:42.785Z,28.70
2022-12-11T07:45:14.079Z,24.70
2022-12-11T07:47:42.160Z,27.10
2022-12-11T07:50:10.285Z,32.40
2022-12-11T07:52:38.157Z,41.60
2022-12-11T07:55:06.217Z,25.40
2022-12-11T07:57:34.093Z,22.90
2022-12-11T08:00:02.124Z,21.40
2022-12-11T08:02:35.442Z,25.30
2022-12-11T08:05:05.894Z,27.10
2022-12-11T08:07:35.847Z,20.30
2022-12-11T08:10:05.248Z,29.60
2022-12-11T08:12:33.075Z,24.50
2022-12-11T08:15:00.974Z,26.60
2022-12-11T08:17:31.032Z,26.90
2022-12-11T08:20:01.863Z,20.50
2022-12-11T08:22:29.891Z,23.20
2022-12-11T08:24:58.001Z,25.10
2022-12-11T08:27:26.987Z,19.70
2022-12-11T08:29:54.756Z,22.40
2022-12-11T08:32:22.680Z,24.70
2022-12-11T08:34:51.963Z,28.80
2022-12-11T08:37:19.938Z,25.40
2022-12-11T08:39:47.710Z,26.80
2022-12-11T08:42:15.625Z,28.30
2022-12-11T08:44:43.523Z,28.60
2022-12-11T08:47:11.875Z,27.90
2022-12-11T08:49:39.933Z,23.40
2022-12-11T08:52:07.814Z,23.80
2022-12-11T08:54:38.229Z,25.00
2022-12-11T08:57:06.225Z,26.80
2022-12-11T08:59:34.351Z,26.60
2022-12-11T09:02:02.336Z,25.20
2022-12-11T09:04:30.270Z,25.80
2022-12-11T09:06:58.260Z,29.20
2022-12-11T09:09:26.171Z,29.20
2022-12-11T09:11:54.169Z,30.20
2022-12-11T09:14:22.412Z,35.40
2022-12-11T09:16:51.437Z,31.60
2022-12-11T09:19:19.422Z,30.80
2022-12-11T09:21:47.290Z,31.00
2022-12-11T09:24:15.730Z,39.00
2022-12-11T09:26:43.740Z,33.30
2022-12-11T09:29:12.533Z,28.60
2022-12-11T09:31:40.943Z,27.40
2022-12-11T09:34:12.289Z,28.90
2022-12-11T09:36:41.570Z,38.40
2022-12-11T09:39:12.628Z,29.70
2022-12-11T09:41:52.092Z,29.30
2022-12-11T09:44:41.959Z,25.80
2022-12-11T09:47:59.508Z,42.20
2022-12-11T09:50:34.736Z,33.10
2022-12-11T09:53:12.356Z,29.30
2022-12-11T09:56:04.796Z,29.90
2022-12-11T09:59:05.054Z,30.10
2022-12-11T10:02:09.322Z,29.40
2022-12-11T10:04:53.207Z,32.60
2022-12-11T10:07:31.578Z,35.10
2022-12-11T10:10:44.540Z,41.10
2022-12-11T10:13:36.606Z,40.40
2022-12-11T10:16:14.283Z,34.40
2022-12-11T10:18:42.356Z,32.10
2022-12-11T10:21:11.099Z,30.20
2022-12-11T10:23:46.456Z,31.60
2022-12-11T10:26:20.758Z,29.80
2022-12-11T10:28:48.744Z,31.80
2022-12-11T10:31:39.353Z,33.60
2022-12-11T10:34:20.459Z,34.90
2022-12-11T10:36:48.472Z,32.00
2022-12-11T10:39:22.205Z,33.40
2022-12-11T10:41:52.532Z,36.90
2022-12-11T10:44:29.416Z,37.20
2022-12-11T10:47:18.081Z,50.90
2022-12-11T10:50:01.961Z,42.70
2022-12-11T10:52:38.326Z,37.70
2022-12-11T10:55:29.231Z,34.30
2022-12-11T10:58:04.538Z,30.10
2022-12-11T11:00:39.112Z,30.30
2022-12-11T11:03:22.882Z,28.90
2022-12-11T11:06:02.552Z,25.70
2022-12-11T11:08:42.623Z,23.20
2022-12-11T11:11:33.875Z,30.30
2022-12-11T11:14:06.193Z,30.90
2022-12-11T11:16:37.978Z,30.00
2022-12-11T11:19:06.484Z,32.10
2022-12-11T11:21:35.987Z,30.80
2022-12-11T11:24:04.089Z,29.10
2022-12-11T11:27:04.380Z,33.10
2022-12-11T11:29:32.778Z,31.00
2022-12-11T11:32:16.460Z,27.90
2022-12-11T11:34:44.390Z,29.40
2022-12-11T11:37:31.611Z,24.60
2022-12-11T11:40:13.653Z,32.80
2022-12-11T11:42:56.202Z,27.60
2022-12-11T11:45:33.765Z,34.90
2022-12-11T11:48:30.760Z,29.00
2022-12-11T11:50:58.856Z,32.90
2022-12-11T11:53:37.498Z,25.70
2022-12-11T11:56:28.588Z,37.60
2022-12-11T11:59:15.716Z,30.00
2022-12-11T12:01:44.289Z,29.20
2022-12-11T12:04:12.584Z,27.00
2022-12-11T12:07:01.814Z,28.70
2022-12-11T12:09:46.512Z,31.90
2022-12-11T12:13:00.382Z,27.80
2022-12-11T12:16:22.957Z,23.80
2022-12-11T12:19:13.743Z,32.40
2022-12-11T12:21:48.132Z,26.00
2022-12-11T12:24:30.949Z,31.70
2022-12-11T12:27:51.161Z,31.90
2022-12-11T12:30:22.012Z,31.00
2022-12-11T12:33:00.995Z,29.10
2022-12-11T12:35:46.767Z,32.50
2022-12-11T12:38:36.565Z,31.70
2022-12-11T12:41:19.782Z,27.20
2022-12-11T12:44:16.782Z,30.80
2022-12-11T12:46:56.400Z,31.80
2022-12-11T12:49:35.497Z,34.20
2022-12-11T12:52:05.525Z,33.20
2022-12-11T12:54:33.876Z,31.10
2022-12-11T12:57:03.126Z,29.30
2022-12-11T12:59:31.507Z,25.20
2022-12-11T13:02:01.868Z,26.80
2022-12-11T13:04:59.174Z,26.80
2022-12-11T13:07:30.818Z,29.70
2022-12-11T13:10:33.955Z,55.80
2022-12-11T13:13:04.467Z,30.60
2022-12-11T13:15:43.138Z,27.80
2022-12-11T13:18:36.160Z,33.30
2022-12-11T13:21:30.812Z,31.20
2022-12-11T13:24:27.644Z,32.70
2022-12-11T13:26:56.010Z,25.40
2022-12-11T13:29:38.193Z,29.50
2022-12-11T13:32:10.333Z,26.20
2022-12-11T13:34:51.587Z,22.90
2022-12-11T13:37:33.885Z,26.70
2022-12-11T13:40:27.442Z,23.10
2022-12-11T13:43:25.835Z,25.70
2022-12-11T13:46:01.420Z,26.40
2022-12-11T13:48:48.698Z,26.50
2022-12-11T13:51:22.428Z,25.50
2022-12-11T13:54:17.676Z,28.20
2022-12-11T13:57:14.512Z,25.10
2022-12-11T13:59:49.436Z,27.50
2022-12-11T14:02:34.760Z,24.00
2022-12-11T14:05:06.901Z,30.10
2022-12-11T14:08:10.347Z,24.40
2022-12-11T14:10:39.278Z,22.70
2022-12-11T14:13:22.913Z,25.00
2022-12-11T14:15:52.745Z,19.30
2022-12-11T14:18:25.225Z,18.30
2022-12-11T14:21:04.510Z,21.20
2022-12-11T14:23:37.637Z,25.60
2022-12-11T14:26:23.510Z,23.60
2022-12-11T14:28:55.698Z,24.90
2022-12-11T14:31:37.634Z,22.90
2022-12-11T14:34:30.222Z,30.80
2022-12-11T14:36:59.470Z,32.00
2022-12-11T14:39:36.190Z,27.10
2022-12-11T14:42:13.490Z,27.10
2022-12-11T14:45:02.160Z,25.20
2022-12-11T14:47:41.707Z,27.10
2022-12-11T14:50:35.920Z,25.00
2022-12-11T14:53:44.414Z,27.40
2022-12-11T14:56:28.121Z,25.00
2022-12-11T14:59:10.493Z,23.60
2022-12-11T15:02:36.732Z,31.20
2022-12-11T15:05:12.452Z,24.20
2022-12-11T15:07:54.075Z,24.70
2022-12-11T15:10:34.154Z,25.30
2022-12-11T15:13:09.694Z,23.30
2022-12-11T15:15:50.084Z,27.60
2022-12-11T15:18:35.871Z,23.80
2022-12-11T15:21:13.703Z,25.50
2022-12-11T15:24:03.020Z,27.00
2022-12-11T15:26:49.378Z,28.20
2022-12-11T15:29:39.344Z,29.60
2022-12-11T15:32:18.453Z,28.40
2022-12-11T15:35:29.227Z,26.30
2022-12-11T15:37:59.016Z,28.90
2022-12-11T15:40:29.829Z,28.70
2022-12-11T15:43:19.592Z,28.00
2022-12-11T15:46:00.721Z,30.30
2022-12-11T15:48:58.506Z,29.70
2022-12-11T15:51:39.708Z,31.70
2022-12-11T15:54:34.582Z,32.70
2022-12-11T15:57:30.541Z,29.10
2022-12-11T16:00:44.815Z,28.10
2022-12-11T16:03:41.908Z,27.40
2022-12-11T16:06:29.959Z,27.40
2022-12-11T16:09:12.036Z,34.00
2022-12-11T16:11:42.954Z,27.50
2022-12-11T16:14:10.919Z,30.10
2022-12-11T16:16:39.066Z,29.90
2022-12-11T16:19:07.183Z,25.10
2022-12-11T16:21:35.283Z,31.20
2022-12-11T16:24:03.658Z,27.70
2022-12-11T16:26:31.647Z,29.30
2022-12-11T16:29:02.238Z,30.40
2022-12-11T16:31:30.388Z,27.10
2022-12-11T16:33:58.558Z,22.50
2022-12-11T16:36:30.403Z,26.00
2022-12-11T16:38:58.626Z,24.40
2022-12-11T16:41:26.980Z,20.70
2022-12-11T16:43:57.880Z,26.60
2022-12-11T16:46:26.025Z,26.30
2022-12-11T16:48:54.347Z,24.40
2022-12-11T16:51:22.928Z,27.00
2022-12-11T16:53:51.153Z,25.30
2022-12-11T16:56:19.391Z,24.10
2022-12-11T16:58:47.955Z,24.00
2022-12-11T17:01:17.988Z,26.30
2022-12-11T17:03:46.509Z,28.40
2022-12-11T17:06:17.790Z,25.50
2022-12-11T17:08:48.878Z,24.50
2022-12-11T17:11:21.878Z,26.10
2022-12-11T17:13:57.878Z,31.70
2022-12-11T17:16:30.479Z,31.90
2022-12-11T17:18:58.824Z,33.10
2022-12-11T17:21:27.047Z,37.60
2022-12-11T17:23:55.813Z,34.60
2022-12-11T17:26:25.389Z,34.70
2022-12-11T17:28:53.381Z,29.70
2022-12-11T17:31:21.291Z,33.70
2022-12-11T17:33:49.756Z,35.30
2022-12-11T17:36:20.694Z,25.20
2022-12-11T17:38:50.200Z,26.80
2022-12-11T17:41:20.775Z,33.60
2022-12-11T17:43:51.570Z,31.80
2022-12-11T17:46:20.380Z,28.50
2022-12-11T17:48:48.883Z,33.20
2022-12-11T17:51:24.765Z,29.90
2022-12-11T17:53:56.084Z,33.30
2022-12-11T17:56:25.118Z,27.80
2022-12-11T17:58:53.199Z,28.30
2022-12-11T18:01:21.278Z,27.00
2022-12-11T18:03:49.412Z,30.90
2022-12-11T18:06:17.691Z,28.50
2022-12-11T18:08:46.096Z,28.20
2022-12-11T18:11:16.982Z,29.60
2022-12-11T18:13:45.928Z,31.80
2022-12-11T18:16:27.889Z,32.80
2022-12-11T18:18:56.644Z,33.00
2022-12-11T18:21:30.898Z,28.30
2022-12-11T18:24:03.290Z,25.20
2022-12-11T18:26:32.816Z,23.50
2022-12-11T18:29:06.612Z,28.80
2022-12-11T18:31:42.730Z,26.90
2022-12-11T18:34:11.834Z,25.30
2022-12-11T18:36:40.897Z,28.00
2022-12-11T18:39:09.252Z,24.70
2022-12-11T18:41:58.328Z,24.50
2022-12-11T18:45:03.390Z,23.80
2022-12-11T18:47:42.306Z,28.70
2022-12-11T18:50:14.403Z,30.40
2022-12-11T18:52:42.655Z,32.20
2022-12-11T18:55:11.227Z,37.20
2022-12-11T18:57:39.306Z,31.10
2022-12-11T19:00:13.082Z,26.60
2022-12-11T19:02:41.518Z,30.80
2022-12-11T19:05:10.672Z,30.20
2022-12-11T19:07:39.179Z,23.60
2022-12-11T19:10:08.869Z,25.50
2022-12-11T19:12:40.346Z,25.60
2022-12-11T19:15:10.292Z,23.00
2022-12-11T19:17:38.721Z,29.30
2022-12-11T19:20:39.849Z,25.50
2022-12-11T19:22:55.876Z,24.50
2022-12-11T19:25:23.996Z,26.50
2022-12-11T19:27:52.010Z,23.70
2022-12-11T19:30:20.258Z,27.10
2022-12-11T19:32:48.193Z,24.70
2022-12-11T19:35:17.681Z,25.20
2022-12-11T19:37:45.546Z,25.00
2022-12-11T19:40:14.568Z,23.50
2022-12-11T19:42:42.535Z,23.60
2022-12-11T19:45:11.433Z,26.10
2022-12-11T19:47:39.595Z,22.10
2022-12-11T19:50:08.105Z,22.30
2022-12-11T19:52:37.505Z,26.20
2022-12-11T19:55:10.343Z,25.00
2022-12-11T19:57:38.435Z,24.70
2022-12-11T20:00:08.118Z,28.50
2022-12-11T20:02:35.901Z,25.10
2022-12-11T20:05:04.007Z,23.90
2022-12-11T20:07:32.143Z,33.00
2022-12-11T20:10:00.443Z,28.30
2022-12-11T20:12:29.632Z,21.90
2022-12-11T20:14:57.496Z,24.60
2022-12-11T20:17:25.447Z,24.60
2022-12-11T20:19:53.312Z,23.50
2022-12-11T20:22:21.290Z,23.80
2022-12-11T20:24:49.119Z,21.80
2022-12-11T20:27:17.074Z,24.90
2022-12-11T20:29:44.967Z,27.50
2022-12-11T20:32:12.899Z,25.30
2022-12-11T20:34:41.305Z,23.30
2022-12-11T20:37:09.320Z,25.90
2022-12-11T20:39:37.284Z,22.40
2022-12-11T20:42:05.197Z,26.60
2022-12-11T20:44:33.071Z,24.30
2022-12-11T20:47:00.828Z,23.80
2022-12-11T20:49:28.753Z,30.80
2022-12-11T20:51:56.897Z,27.20
2022-12-11T20:54:24.909Z,25.20
2022-12-11T20:56:52.713Z,22.70
2022-12-11T20:59:20.531Z,26.30
2022-12-11T21:01:49.453Z,22.60
2022-12-11T21:04:17.897Z,30.60
2022-12-11T21:06:45.830Z,28.80
2022-12-11T21:09:17.789Z,24.60
2022-12-11T21:11:46.022Z,22.30
2022-12-11T21:14:15.108Z,24.80
2022-12-11T21:16:43.757Z,30.70
2022-12-11T21:19:16.828Z,24.20
2022-12-11T21:21:46.359Z,26.10
2022-12-11T21:24:22.445Z,23.20
2022-12-11T21:26:50.493Z,22.50
2022-12-11T21:29:18.490Z,27.50
2022-12-11T21:31:46.467Z,30.40
2022-12-11T21:34:14.255Z,23.20
2022-12-11T21:36:42.118Z,22.20
2022-12-11T21:39:12.018Z,22.70
2022-12-11T21:41:41.178Z,23.60
2022-12-11T21:46:58.433Z,21.50
2022-12-11T21:49:26.365Z,21.20
2022-12-11T21:51:54.402Z,20.80
2022-12-11T21:54:22.362Z,22.90
2022-12-11T21:56:50.323Z,22.00
2022-12-11T21:59:18.204Z,21.40
2022-12-11T22:01:46.460Z,21.90
2022-12-11T22:04:16.076Z,20.00
2022-12-11T22:06:47.114Z,23.70
2022-12-11T22:09:17.854Z,20.30
2022-12-11T22:11:46.806Z,19.40
2022-12-11T22:14:17.176Z,22.40
2022-12-11T22:16:45.951Z,24.00
2022-12-11T22:19:14.068Z,21.70
2022-12-11T22:21:42.727Z,21.30
2022-12-11T22:24:10.721Z,20.80
2022-12-11T22:26:39.187Z,24.30
2022-12-11T22:29:07.173Z,17.70
2022-12-11T22:31:35.114Z,19.50
2022-12-11T22:34:03.003Z,20.40
2022-12-11T22:36:30.835Z,15.80
2022-12-11T22:39:00.572Z,22.90
2022-12-11T22:41:32.097Z,20.40
2022-12-11T22:44:00.327Z,17.60
2022-12-11T22:46:30.863Z,20.00
2022-12-11T22:48:59.683Z,20.20
2022-12-11T22:51:27.925Z,19.90
2022-12-11T22:53:58.158Z,20.40
2022-12-11T22:56:26.324Z,21.40
2022-12-11T22:58:54.521Z,18.50
2022-12-11T23:01:24.781Z,23.90
2022-12-11T23:03:53.547Z,17.90
2022-12-11T23:06:24.946Z,20.00
2022-12-11T23:08:55.297Z,20.90
2022-12-11T23:11:29.012Z,18.10
2022-12-11T23:13:58.757Z,20.40
2022-12-11T23:16:28.008Z,19.90
2022-12-11T23:18:57.681Z,20.30
2022-12-11T23:21:31.283Z,17.90
2022-12-11T23:23:59.490Z,19.00
2022-12-11T23:26:28.610Z,19.90
2022-12-11T23:28:58.641Z,21.10
2022-12-11T23:31:27.606Z,20.40
2022-12-11T23:33:55.695Z,20.40
2022-12-11T23:36:25.492Z,21.80
2022-12-11T23:38:54.918Z,20.20
2022-12-11T23:41:23.771Z,22.40
2022-12-11T23:43:52.185Z,20.80
2022-12-11T23:46:23.486Z,18.90
2022-12-11T23:48:52.656Z,17.70
2022-12-11T23:51:23.087Z,26.00
2022-12-11T23:53:51.690Z,18.70
2022-12-11T23:56:25.970Z,22.50
2022-12-11T23:58:54.367Z,22.50
